Time;durP1;ratioP1;P1;durP2;ratioP2;P2;SDS_P1;SDS_P2;PMS_P1;PMS_P2;Temp;Humidity;BMP_temperature;BMP_pressure;BME280_temperature;BME280_humidity;BME280_pressure;Samples;Min_cycle;Max_cycle;Signal;HPM_P1;HPM_P2
2021/09/10 00:01:51;;;;;;;13.15;9.18;;;;;;;;;;6129738;28;20112;-79
2021/09/10 00:04:53;;;;;;;13.80;8.90;;;;;;;;;;6149403;28;20716;-80
2021/09/10 00:07:55;;;;;;;11.07;9.00;;;;;;;;;;6148682;28;20043;-83
2021/09/10 00:10:56;;;;;;;13.55;9.05;;;;;;;;;;6150586;28;20489;-80
2021/09/10 00:13:58;;;;;;;12.02;9.30;;;;;;;;;;6151104;28;20035;-79
2021/09/10 00:17:00;;;;;;;13.03;9.47;;;;;;;;;;6151115;28;20130;-80
2021/09/10 00:20:02;;;;;;;15.38;9.68;;;;;;;;;;6150525;28;20047;-82
2021/09/10 00:23:04;;;;;;;15.32;9.85;;;;;;;;;;6134048;28;20122;-80
2021/09/10 00:26:06;;;;;;;14.75;10.02;;;;;;;;;;6151056;28;20189;-82
2021/09/10 00:29:08;;;;;;;11.32;9.32;;;;;;;;;;6150722;28;20094;-82
2021/09/10 00:32:09;;;;;;;16.35;10.30;;;;;;;;;;6157783;28;20097;-79
2021/09/10 00:35:11;;;;;;;13.40;9.15;;;;;;;;;;6159382;28;20047;-79
2021/09/10 00:38:13;;;;;;;13.35;10.02;;;;;;;;;;6175406;28;20054;-83
2021/09/10 00:41:14;;;;;;;16.50;9.85;;;;;;;;;;6173257;28;20053;-82
2021/09/10 00:44:17;;;;;;;14.15;9.57;;;;;;;;;;6173671;28;20043;-81
2021/09/10 00:47:19;;;;;;;13.57;8.98;;;;;;;;;;6158195;28;20044;-79
2021/09/10 00:50:20;;;;;;;14.40;9.20;;;;;;;;;;6174039;28;20050;-80
2021/09/10 00:53:22;;;;;;;12.55;9.90;;;;;;;;;;6170759;28;20634;-81
2021/09/10 00:56:25;;;;;;;12.40;9.23;;;;;;;;;;6175524;28;20053;-82
2021/09/10 00:59:27;;;;;;;13.52;9.50;;;;;;;;;;6170243;28;20523;-79
2021/09/10 01:02:28;;;;;;;12.80;9.43;;;;;;;;;;6155940;28;20050;-83
2021/09/10 01:05:31;;;;;;;13.70;9.55;;;;;;;;;;6172123;28;20129;-79
2021/09/10 01:08:33;;;;;;;11.95;9.65;;;;;;;;;;6153736;28;20106;-81
2021/09/10 01:11:53;;;;;;;13.15;9.80;;;;;;;;;;6173192;28;20085;-80
2021/09/10 01:15:12;;;;;;;14.00;9.77;;;;;;;;;;6171928;28;20063;-81
2021/09/10 01:18:14;;;;;;;12.18;9.52;;;;;;;;;;6172960;28;20047;-81
2021/09/10 01:21:16;;;;;;;12.57;9.35;;;;;;;;;;6173298;28;20038;-82
2021/09/10 01:24:25;;;;;;;12.07;9.30;;;;;;;;;;6167369;28;20047;-83
2021/09/10 01:27:26;;;;;;;14.18;9.52;;;;;;;;;;6150154;28;20091;-80
2021/09/10 01:30:31;;;;;;;12.70;9.52;;;;;;;;;;6164301;28;20099;-83
2021/09/10 01:33:33;;;;;;;13.02;9.35;;;;;;;;;;6161812;28;20042;-80
2021/09/10 01:36:35;;;;;;;13.85;9.77;;;;;;;;;;6171913;28;20105;-80
2021/09/10 01:39:37;;;;;;;13.05;9.73;;;;;;;;;;6149832;28;20133;-82
2021/09/10 01:42:39;;;;;;;12.45;9.60;;;;;;;;;;6140226;28;20122;-80
2021/09/10 01:45:40;;;;;;;14.85;9.50;;;;;;;;;;6125743;28;20091;-79
2021/09/10 01:48:42;;;;;;;14.03;10.07;;;;;;;;;;6149167;28;20074;-81
2021/09/10 01:51:44;;;;;;;11.70;9.13;;;;;;;;;;6147029;28;20147;-79
2021/09/10 01:54:46;;;;;;;11.48;8.88;;;;;;;;;;6155598;28;20416;-80
2021/09/10 01:57:49;;;;;;;13.27;9.48;;;;;;;;;;6199121;28;20496;-79
2021/09/10 02:00:51;;;;;;;;;;;;;;;;;;6140388;28;20050;-82
2021/09/10 02:03:53;;;;;;;16.27;9.27;;;;;;;;;;6147435;28;19930;-79
2021/09/10 02:06:55;;;;;;;12.48;9.20;;;;;;;;;;6148151;28;20145;-79
2021/09/10 02:09:56;;;;;;;11.60;9.07;;;;;;;;;;6159649;28;20051;-79
2021/09/10 02:12:58;;;;;;;13.73;10.13;;;;;;;;;;6144411;28;20130;-81
2021/09/10 02:15:59;;;;;;;12.43;9.80;;;;;;;;;;6142877;28;20047;-79
2021/09/10 02:19:01;;;;;;;14.55;10.43;;;;;;;;;;6117437;28;20067;-82
2021/09/10 02:22:04;;;;;;;12.73;9.35;;;;;;;;;;6124031;28;20134;-81
2021/09/10 02:25:06;;;;;;;14.50;9.55;;;;;;;;;;6145104;28;20058;-80
2021/09/10 02:28:08;;;;;;;13.07;9.68;;;;;;;;;;6146643;28;20067;-81
2021/09/10 02:31:09;;;;;;;12.95;9.75;;;;;;;;;;6146686;28;20046;-83
2021/09/10 02:34:11;;;;;;;17.02;10.43;;;;;;;;;;6165185;28;20043;-83
2021/09/10 02:37:13;;;;;;;14.05;9.68;;;;;;;;;;6170121;28;20054;-79
2021/09/10 02:40:15;;;;;;;11.68;9.43;;;;;;;;;;6164480;28;20042;-81
2021/09/10 02:43:17;;;;;;;13.27;9.02;;;;;;;;;;6188122;28;20043;-79
2021/09/10 02:46:19;;;;;;;12.45;9.57;;;;;;;;;;6142790;28;20055;-83
2021/09/10 02:49:21;;;;;;;11.18;9.13;;;;;;;;;;6168989;28;20047;-82
2021/09/10 02:52:22;;;;;;;14.25;10.10;;;;;;;;;;6171749;28;20066;-82
2021/09/10 02:55:27;;;;;;;12.10;8.95;;;;;;;;;;6171395;28;20074;-81
2021/09/10 02:58:28;;;;;;;12.82;9.60;;;;;;;;;;6156221;28;20039;-82
2021/09/10 03:01:30;;;;;;;12.57;9.07;;;;;;;;;;6154656;28;20051;-83
2021/09/10 03:04:33;;;;;;;12.98;9.35;;;;;;;;;;6153373;28;20051;-81
2021/09/10 03:07:35;;;;;;;15.15;9.50;;;;;;;;;;6137954;28;20488;-80
2021/09/10 03:10:37;;;;;;;11.32;9.38;;;;;;;;;;6137675;28;20496;-80
2021/09/10 03:13:38;;;;;;;13.20;9.15;;;;;;;;;;6160688;28;20110;-79
2021/09/10 03:16:40;;;;;;;12.93;9.15;;;;;;;;;;6140768;28;20050;-82
2021/09/10 03:19:42;;;;;;;14.02;10.35;;;;;;;;;;6151731;28;20085;-82
2021/09/10 03:22:43;;;;;;;12.82;9.82;;;;;;;;;;6152357;28;20054;-79
2021/09/10 03:25:45;;;;;;;12.20;9.50;;;;;;;;;;6154451;28;20339;-83
2021/09/10 03:28:47;;;;;;;14.73;10.43;;;;;;;;;;6137613;28;20102;-83
2021/09/10 03:31:48;;;;;;;20.88;10.93;;;;;;;;;;6156223;28;20043;-82
2021/09/10 03:34:50;;;;;;;13.25;9.85;;;;;;;;;;6161973;28;20491;-81
2021/09/10 03:37:51;;;;;;;13.82;9.50;;;;;;;;;;6180105;28;20455;-83
2021/09/10 03:40:53;;;;;;;11.10;8.63;;;;;;;;;;6165313;28;20094;-82
2021/09/10 03:43:55;;;;;;;13.40;9.82;;;;;;;;;;6152946;28;20043;-80
2021/09/10 03:46:58;;;;;;;15.52;9.63;;;;;;;;;;6171425;28;20327;-79
2021/09/10 03:50:00;;;;;;;14.07;10.05;;;;;;;;;;6170229;28;20042;-83
2021/09/10 03:53:02;;;;;;;15.32;10.75;;;;;;;;;;6183584;28;20034;-82
2021/09/10 03:56:04;;;;;;;14.00;10.35;;;;;;;;;;6173520;28;20038;-79
2021/09/10 03:59:06;;;;;;;16.10;11.30;;;;;;;;;;6168854;28;20784;-82
2021/09/10 04:02:07;;;;;;;13.18;9.57;;;;;;;;;;6165519;28;20412;-82
2021/09/10 04:05:10;;;;;;;12.57;9.57;;;;;;;;;;6166755;28;20504;-81
2021/09/10 04:08:12;;;;;;;12.23;8.83;;;;;;;;;;6149469;28;20547;-81
2021/09/10 04:11:14;;;;;;;11.83;8.90;;;;;;;;;;6133951;28;20485;-82
2021/09/10 04:14:15;;;;;;;12.85;8.68;;;;;;;;;;6156247;28;20079;-79
2021/09/10 04:17:18;;;;;;;16.75;9.35;;;;;;;;;;6153458;28;20062;-80
2021/09/10 04:20:19;;;;;;;12.43;9.17;;;;;;;;;;6143094;28;20043;-81
2021/09/10 04:23:21;;;;;;;13.23;10.07;;;;;;;;;;6144119;28;21087;-81
2021/09/10 04:26:23;;;;;;;16.00;10.90;;;;;;;;;;6143034;28;20088;-81
2021/09/10 04:29:24;;;;;;;13.25;10.32;;;;;;;;;;6141675;28;20923;-81
2021/09/10 04:32:26;;;;;;;15.70;10.93;;;;;;;;;;6143316;28;20074;-81
2021/09/10 04:35:27;;;;;;;12.85;8.82;;;;;;;;;;6142528;28;20085;-82
2021/09/10 04:38:29;;;;;;;11.60;8.23;;;;;;;;;;6158266;28;20054;-82
2021/09/10 04:41:31;;;;;;;12.55;8.38;;;;;;;;;;6143733;28;20044;-80
2021/09/10 04:44:32;;;;;;;11.35;9.10;;;;;;;;;;6127858;28;20055;-81
2021/09/10 04:47:34;;;;;;;15.20;9.85;;;;;;;;;;6151362;28;20063;-82
2021/09/10 04:50:35;;;;;;;15.23;10.63;;;;;;;;;;6167741;28;20046;-82
2021/09/10 04:53:39;;;;;;;13.48;9.60;;;;;;;;;;6157756;28;20394;-82
2021/09/10 04:56:41;;;;;;;14.43;9.73;;;;;;;;;;6145592;28;20501;-82
2021/09/10 04:59:43;;;;;;;12.00;9.05;;;;;;;;;;6147021;28;20051;-83
2021/09/10 05:02:44;;;;;;;11.43;8.82;;;;;;;;;;6151650;28;20050;-82
2021/09/10 05:05:46;;;;;;;9.10;7.43;;;;;;;;;;6151178;28;20057;-82
2021/09/10 05:08:48;;;;;;;11.23;8.23;;;;;;;;;;6166376;28;20070;-82
2021/09/10 05:11:49;;;;;;;10.73;8.43;;;;;;;;;;6151174;28;20066;-82
2021/09/10 05:14:52;;;;;;;12.18;8.77;;;;;;;;;;6162994;28;20039;-81
2021/09/10 05:17:53;;;;;;;48.47;10.80;;;;;;;;;;6145225;28;20138;-83
2021/09/10 05:20:55;;;;;;;14.18;9.25;;;;;;;;;;6143429;28;20073;-82
2021/09/10 05:23:58;;;;;;;14.32;9.98;;;;;;;;;;6127008;28;20050;-82
2021/09/10 05:26:59;;;;;;;12.68;9.98;;;;;;;;;;6144334;28;20420;-82
2021/09/10 05:30:01;;;;;;;19.67;10.70;;;;;;;;;;6142740;28;20110;-82
2021/09/10 05:33:02;;;;;;;14.43;10.38;;;;;;;;;;6159466;28;20053;-81
2021/09/10 05:36:04;;;;;;;14.38;9.88;;;;;;;;;;6144073;28;20131;-81
2021/09/10 05:39:06;;;;;;;16.38;10.13;;;;;;;;;;6128640;28;20050;-81
2021/09/10 05:42:08;;;;;;;13.48;9.55;;;;;;;;;;6149221;28;20129;-84
2021/09/10 05:45:09;;;;;;;12.27;10.02;;;;;;;;;;6141848;28;20049;-81
2021/09/10 05:48:11;;;;;;;13.65;10.75;;;;;;;;;;6173920;28;20043;-82
2021/09/10 05:51:13;;;;;;;14.93;9.90;;;;;;;;;;6164622;28;20047;-83
2021/09/10 05:54:14;;;;;;;11.52;9.07;;;;;;;;;;6136753;28;20401;-82
2021/09/10 05:57:16;;;;;;;13.63;10.00;;;;;;;;;;6140338;28;20660;-82
2021/09/10 06:00:18;;;;;;;14.48;9.50;;;;;;;;;;6141990;28;20584;-82
2021/09/10 06:03:19;;;;;;;15.68;10.00;;;;;;;;;;6158109;28;20487;-82
2021/09/10 06:06:21;;;;;;;13.95;9.05;;;;;;;;;;6144560;28;20054;-83
2021/09/10 06:09:23;;;;;;;15.85;9.80;;;;;;;;;;6146939;28;20122;-83
2021/09/10 06:12:24;;;;;;;14.85;10.05;;;;;;;;;;6152184;28;20381;-82
2021/09/10 06:15:26;;;;;;;16.58;10.68;;;;;;;;;;6155684;28;20416;-80
2021/09/10 06:18:28;;;;;;;16.55;10.48;;;;;;;;;;6142437;28;20134;-82
2021/09/10 06:21:29;;;;;;;15.10;10.40;;;;;;;;;;6142682;28;20039;-82
2021/09/10 06:24:31;;;;;;;14.60;10.13;;;;;;;;;;6139013;28;20118;-81
2021/09/10 06:27:33;;;;;;;12.35;9.35;;;;;;;;;;6141539;28;20043;-82
2021/09/10 06:30:35;;;;;;;17.25;10.82;;;;;;;;;;6141820;28;20048;-83
2021/09/10 06:33:37;;;;;;;15.23;10.13;;;;;;;;;;6156927;28;20071;-83
2021/09/10 06:36:38;;;;;;;14.70;10.55;;;;;;;;;;6125195;28;20047;-82
2021/09/10 06:39:40;;;;;;;14.50;11.10;;;;;;;;;;6168541;28;20047;-83
2021/09/10 06:42:42;;;;;;;15.98;10.77;;;;;;;;;;6169595;28;20047;-82
2021/09/10 06:45:44;;;;;;;13.50;10.52;;;;;;;;;;6172466;28;20500;-82
2021/09/10 06:48:45;;;;;;;16.53;10.47;;;;;;;;;;6181126;28;20046;-83
2021/09/10 06:51:47;;;;;;;13.48;10.38;;;;;;;;;;6171945;28;20049;-82
2021/09/10 06:54:49;;;;;;;14.57;10.45;;;;;;;;;;6157919;28;20061;-83
2021/09/10 06:57:50;;;;;;;15.93;10.93;;;;;;;;;;6146971;28;20043;-82
2021/09/10 07:00:52;;;;;;;15.52;10.63;;;;;;;;;;6151572;28;20047;-83
2021/09/10 07:03:54;;;;;;;14.18;10.43;;;;;;;;;;6148403;28;20044;-82
2021/09/10 07:06:56;;;;;;;14.00;10.50;;;;;;;;;;6124097;28;20047;-82
2021/09/10 07:09:58;;;;;;;15.68;10.93;;;;;;;;;;6153000;28;20047;-83
2021/09/10 07:12:59;;;;;;;16.30;10.93;;;;;;;;;;6163085;28;20145;-82
2021/09/10 07:16:01;;;;;;;16.80;11.10;;;;;;;;;;6162525;28;20181;-82
2021/09/10 07:19:02;;;;;;;16.23;10.10;;;;;;;;;;6157100;28;20049;-82
2021/09/10 07:22:04;;;;;;;13.55;9.70;;;;;;;;;;6154506;28;20051;-82
2021/09/10 07:25:06;;;;;;;13.45;10.35;;;;;;;;;;6153418;28;20046;-83
2021/09/10 07:28:08;;;;;;;15.77;10.27;;;;;;;;;;6154477;28;20039;-81
2021/09/10 07:31:10;;;;;;;15.45;10.35;;;;;;;;;;6172036;28;20050;-82
2021/09/10 07:34:11;;;;;;;15.73;10.68;;;;;;;;;;6161828;28;20047;-83
2021/09/10 07:37:13;;;;;;;13.15;10.30;;;;;;;;;;6178376;28;20460;-83
2021/09/10 07:40:16;;;;;;;18.60;9.75;;;;;;;;;;6177154;28;20496;-83
2021/09/10 07:43:18;;;;;;;13.60;9.45;;;;;;;;;;6146247;28;20051;-83
2021/09/10 07:46:19;;;;;;;13.63;9.55;;;;;;;;;;6153564;28;20506;-83
2021/09/10 07:49:22;;;;;;;10.98;8.20;;;;;;;;;;6170426;28;20042;-83
2021/09/10 07:52:23;;;;;;;10.32;8.38;;;;;;;;;;6168573;28;20049;-82
2021/09/10 07:55:25;;;;;;;10.10;7.90;;;;;;;;;;6150772;28;20043;-82
2021/09/10 07:58:26;;;;;;;10.30;8.30;;;;;;;;;;6146551;28;20768;-82
2021/09/10 08:01:28;;;;;;;9.93;7.53;;;;;;;;;;6147516;28;20125;-83
2021/09/10 08:04:30;;;;;;;10.63;7.57;;;;;;;;;;6145966;28;20047;-82
2021/09/10 08:07:32;;;;;;;9.70;7.20;;;;;;;;;;6145772;28;20046;-81
2021/09/10 08:10:33;;;;;;;8.50;7.27;;;;;;;;;;6142938;28;20054;-83
2021/09/10 08:13:35;;;;;;;10.00;7.60;;;;;;;;;;6145965;28;20552;-82
2021/09/10 08:16:37;;;;;;;9.27;7.20;;;;;;;;;;6162239;28;20054;-83
2021/09/10 08:19:39;;;;;;;8.27;7.00;;;;;;;;;;6161495;28;20086;-83
2021/09/10 08:22:41;;;;;;;8.07;6.97;;;;;;;;;;6155623;28;20054;-82
2021/09/10 08:25:43;;;;;;;11.55;8.35;;;;;;;;;;6162871;28;20107;-81
2021/09/10 08:28:44;;;;;;;8.13;6.68;;;;;;;;;;6156342;28;20046;-82
2021/09/10 08:31:46;;;;;;;10.73;7.55;;;;;;;;;;6155232;28;20189;-82
2021/09/10 08:34:49;;;;;;;7.82;6.95;;;;;;;;;;6150703;28;20390;-83
2021/09/10 08:37:51;;;;;;;8.00;6.82;;;;;;;;;;6170385;28;20049;-82
2021/09/10 08:40:57;;;;;;;8.63;7.20;;;;;;;;;;6162737;28;20053;-82
2021/09/10 08:44:03;;;;;;;9.25;7.43;;;;;;;;;;6166214;28;20043;-81
2021/09/10 08:47:05;;;;;;;9.40;7.10;;;;;;;;;;6162010;28;20045;-82
2021/09/10 08:50:07;;;;;;;8.10;6.78;;;;;;;;;;6170751;28;20518;-82
2021/09/10 08:53:09;;;;;;;7.90;6.50;;;;;;;;;;6141467;28;20047;-83
2021/09/10 08:56:13;;;;;;;8.18;6.72;;;;;;;;;;6163613;28;20042;-83
2021/09/10 08:59:18;;;;;;;8.68;6.80;;;;;;;;;;6167033;28;20074;-81
2021/09/10 09:02:20;;;;;;;9.18;6.78;;;;;;;;;;6160237;28;20090;-81
2021/09/10 09:05:26;;;;;;;7.88;6.75;;;;;;;;;;6151266;28;20059;-82
2021/09/10 09:08:28;;;;;;;8.13;7.03;;;;;;;;;;6148329;28;20047;-81
2021/09/10 09:11:30;;;;;;;8.18;6.90;;;;;;;;;;6146550;28;20047;-80
2021/09/10 09:14:54;;;;;;;7.03;6.28;;;;;;;;;;6146052;28;20170;-79
2021/09/10 09:17:56;;;;;;;7.20;6.50;;;;;;;;;;6160546;28;20046;-77
2021/09/10 09:21:04;;;;;;;7.97;6.18;;;;;;;;;;6151229;28;20436;-79
2021/09/10 09:24:23;;;;;;;9.93;6.80;;;;;;;;;;6150736;28;20042;-78
2021/09/10 09:27:26;;;;;;;7.28;6.07;;;;;;;;;;6150689;28;20043;-78
2021/09/10 09:30:35;;;;;;;7.22;5.88;;;;;;;;;;6151730;28;20044;-79
2021/09/10 09:33:44;;;;;;;7.28;5.50;;;;;;;;;;6151360;28;20489;-79
2021/09/10 09:36:53;;;;;;;5.95;5.30;;;;;;;;;;6151302;28;20442;-79
2021/09/10 09:40:00;;;;;;;6.40;5.80;;;;;;;;;;6166677;28;20543;-80
2021/09/10 09:43:19;;;;;;;7.18;5.70;;;;;;;;;;6171436;28;20049;-78
2021/09/10 09:46:22;;;;;;;7.13;5.47;;;;;;;;;;6162243;28;20106;-80
2021/09/10 09:49:24;;;;;;;7.28;5.50;;;;;;;;;;6171534;28;20113;-79
2021/09/10 09:52:25;;;;;;;7.82;5.70;;;;;;;;;;6169912;28;20040;-79
2021/09/10 09:55:28;;;;;;;6.60;5.55;;;;;;;;;;6156309;28;20039;-80
2021/09/10 09:58:30;;;;;;;7.32;5.63;;;;;;;;;;6147113;28;20051;-79
2021/09/10 10:01:33;;;;;;;6.15;5.53;;;;;;;;;;6147608;28;20126;-78
2021/09/10 10:04:35;;;;;;;;;;;;;;;;;;6148721;28;20102;-78
2021/09/10 10:08:03;;;;;;;8.10;5.43;;;;;;;;;;6148220;28;19926;-78
2021/09/10 10:11:15;;;;;;;6.78;6.00;;;;;;;;;;6147549;28;20107;-79
2021/09/10 10:14:37;;;;;;;9.80;5.47;;;;;;;;;;6153278;28;20114;-79
2021/09/10 10:17:38;;;;;;;7.97;5.53;;;;;;;;;;6150726;28;20147;-79
2021/09/10 10:20:47;;;;;;;7.73;5.87;;;;;;;;;;6174511;28;20130;-79
2021/09/10 10:23:49;;;;;;;6.95;5.88;;;;;;;;;;6154146;28;20035;-79
2021/09/10 10:26:51;;;;;;;9.07;6.25;;;;;;;;;;6143470;28;20073;-79
2021/09/10 10:29:53;;;;;;;8.35;5.95;;;;;;;;;;6151453;28;20050;-78
2021/09/10 10:32:54;;;;;;;7.35;5.90;;;;;;;;;;6171303;28;20142;-78
2021/09/10 10:35:56;;;;;;;6.47;5.77;;;;;;;;;;6175379;28;20047;-79
2021/09/10 10:39:14;;;;;;;9.98;6.25;;;;;;;;;;6163544;28;20047;-79
2021/09/10 10:42:15;;;;;;;10.93;6.70;;;;;;;;;;6172532;28;20463;-79
2021/09/10 10:45:37;;;;;;;9.23;6.43;;;;;;;;;;6167166;28;20046;-82
2021/09/10 10:48:43;;;;;;;7.60;6.50;;;;;;;;;;6153419;28;20059;-80
2021/09/10 10:51:50;;;;;;;8.07;6.30;;;;;;;;;;6159076;28;20049;-81
2021/09/10 10:55:13;;;;;;;9.63;6.17;;;;;;;;;;6153204;28;20050;-80
2021/09/10 10:58:26;;;;;;;7.57;5.82;;;;;;;;;;6149424;28;20071;-80
2021/09/10 11:01:29;;;;;;;7.32;6.03;;;;;;;;;;6168906;28;20047;-80
2021/09/10 11:04:39;;;;;;;7.20;5.93;;;;;;;;;;6153320;28;20049;-79
2021/09/10 11:07:42;;;;;;;7.20;5.90;;;;;;;;;;6152946;28;20214;-79
2021/09/10 11:10:50;;;;;;;6.18;5.60;;;;;;;;;;6174543;28;20060;-81
2021/09/10 11:13:51;;;;;;;7.20;5.80;;;;;;;;;;6192593;28;20154;-80
2021/09/10 11:16:53;;;;;;;7.05;5.90;;;;;;;;;;6145278;28;20090;-81
2021/09/10 11:19:57;;;;;;;9.20;6.40;;;;;;;;;;6145103;28;20046;-83
2021/09/10 11:22:58;;;;;;;7.60;6.57;;;;;;;;;;6143764;28;20054;-80
2021/09/10 11:26:00;;;;;;;7.38;6.38;;;;;;;;;;6142991;28;20043;-80
2021/09/10 11:29:12;;;;;;;7.88;6.43;;;;;;;;;;6164192;28;20047;-81
2021/09/10 11:32:24;;;;;;;8.05;6.63;;;;;;;;;;6143207;28;20055;-82
2021/09/10 11:35:28;;;;;;;8.25;6.65;;;;;;;;;;6158088;28;20051;-83
2021/09/10 11:38:31;;;;;;;8.02;6.15;;;;;;;;;;6139661;28;20039;-82
2021/09/10 11:41:35;;;;;;;6.72;5.40;;;;;;;;;;6163015;28;20047;-82
2021/09/10 11:44:37;;;;;;;6.30;5.10;;;;;;;;;;6162537;28;20174;-82
2021/09/10 11:47:41;;;;;;;8.52;5.93;;;;;;;;;;6157138;28;20077;-80
2021/09/10 11:50:49;;;;;;;7.70;5.70;;;;;;;;;;6162805;28;20050;-80
2021/09/10 11:53:56;;;;;;;6.45;5.00;;;;;;;;;;6159862;28;20051;-82
2021/09/10 11:57:00;;;;;;;5.50;5.00;;;;;;;;;;6174745;28;20046;-80
2021/09/10 12:00:04;;;;;;;7.22;5.40;;;;;;;;;;6191281;28;20043;-80
2021/09/10 12:03:12;;;;;;;6.93;5.07;;;;;;;;;;6165451;28;20515;-82
2021/09/10 12:06:28;;;;;;;5.55;4.90;;;;;;;;;;6166290;28;20520;-81
2021/09/10 12:09:37;;;;;;;5.82;5.22;;;;;;;;;;6160443;28;20054;-81
2021/09/10 12:12:40;;;;;;;7.10;5.38;;;;;;;;;;6143161;28;20059;-81
2021/09/10 12:15:44;;;;;;;6.60;5.30;;;;;;;;;;6155549;28;20058;-83
2021/09/10 12:19:03;;;;;;;6.07;5.18;;;;;;;;;;6148554;28;20078;-81
2021/09/10 12:22:37;;;;;;;5.45;4.90;;;;;;;;;;6162916;28;20046;-82
2021/09/10 12:25:41;;;;;;;6.30;4.78;;;;;;;;;;6136162;28;20054;-82
2021/09/10 12:28:43;;;;;;;5.20;4.70;;;;;;;;;;6144217;28;20118;-80
2021/09/10 12:31:45;;;;;;;6.50;4.97;;;;;;;;;;6145904;28;20053;-82
2021/09/10 12:34:47;;;;;;;7.70;5.30;;;;;;;;;;6148961;28;20061;-82
2021/09/10 12:38:01;;;;;;;5.75;5.13;;;;;;;;;;6128667;28;20042;-80
2021/09/10 12:41:04;;;;;;;5.85;5.00;;;;;;;;;;6139442;28;20055;-82
2021/09/10 12:44:10;;;;;;;5.50;5.00;;;;;;;;;;6129396;28;20177;-82
2021/09/10 12:47:12;;;;;;;6.95;5.15;;;;;;;;;;6184493;28;20110;-83
2021/09/10 12:50:15;;;;;;;6.38;5.25;;;;;;;;;;6151801;28;20533;-80
2021/09/10 12:53:18;;;;;;;7.32;5.45;;;;;;;;;;6158781;28;20047;-81
2021/09/10 12:56:23;;;;;;;7.95;5.88;;;;;;;;;;6123909;28;20121;-81
2021/09/10 12:59:26;;;;;;;5.80;5.20;;;;;;;;;;6146469;28;20504;-82
2021/09/10 13:02:28;;;;;;;6.25;5.40;;;;;;;;;;6163324;28;20093;-82
2021/09/10 13:05:32;;;;;;;8.50;6.10;;;;;;;;;;6148748;28;20043;-82
2021/09/10 13:08:35;;;;;;;7.47;6.32;;;;;;;;;;6164308;28;20047;-81
2021/09/10 13:11:39;;;;;;;8.18;6.90;;;;;;;;;;6141306;28;20058;-82
2021/09/10 13:14:48;;;;;;;8.32;6.25;;;;;;;;;;6143795;28;20126;-81
2021/09/10 13:17:50;;;;;;;8.02;6.70;;;;;;;;;;6151253;28;20050;-82
2021/09/10 13:20:51;;;;;;;9.95;7.32;;;;;;;;;;6170048;28;20518;-82
2021/09/10 13:23:54;;;;;;;5.38;4.82;;;;;;;;;;6168047;28;20523;-81
2021/09/10 13:26:55;;;;;;;4.95;3.80;;;;;;;;;;6158803;28;20074;-81
2021/09/10 13:29:58;;;;;;;3.78;3.40;;;;;;;;;;6149265;28;20050;-82
2021/09/10 13:33:00;;;;;;;4.95;3.60;;;;;;;;;;6151490;28;20082;-81
2021/09/10 13:36:02;;;;;;;4.27;3.87;;;;;;;;;;6166992;28;20092;-81
2021/09/10 13:39:04;;;;;;;6.25;4.00;;;;;;;;;;6153225;28;20051;-81
2021/09/10 13:42:06;;;;;;;5.22;3.72;;;;;;;;;;6118310;29;20102;-81
2021/09/10 13:45:10;;;;;;;;;;;;;;;;;;6135300;29;20044;-82
2021/09/10 13:48:13;;;;;;;4.15;3.00;;;;;;;;;;6166223;28;20006;-81
2021/09/10 13:51:15;;;;;;;3.35;2.83;;;;;;;;;;6127225;28;20043;-82
2021/09/10 13:54:17;;;;;;;3.45;2.83;;;;;;;;;;6145693;28;20075;-81
2021/09/10 13:57:20;;;;;;;5.78;3.42;;;;;;;;;;6142229;28;20130;-82
2021/09/10 14:00:21;;;;;;;3.53;2.83;;;;;;;;;;6126585;28;20063;-82
2021/09/10 14:03:23;;;;;;;3.67;2.92;;;;;;;;;;6122989;28;20134;-82
2021/09/10 14:06:26;;;;;;;3.88;2.88;;;;;;;;;;6149327;28;20051;-81
2021/09/10 14:09:28;;;;;;;;;;;;;;;;;;6140530;28;20039;-81
2021/09/10 14:12:31;;;;;;;4.47;3.25;;;;;;;;;;6140683;28;19929;-79
2021/09/10 14:15:33;;;;;;;3.47;2.97;;;;;;;;;;6140022;28;20043;-83
2021/09/10 14:18:35;;;;;;;5.10;3.67;;;;;;;;;;6135974;28;20127;-79
2021/09/10 14:21:37;;;;;;;4.28;3.30;;;;;;;;;;6158642;28;20050;-81
2021/09/10 14:24:40;;;;;;;3.47;3.17;;;;;;;;;;6140089;28;20339;-78
2021/09/10 14:27:41;;;;;;;5.00;3.40;;;;;;;;;;6160138;28;20054;-79
2021/09/10 14:30:43;;;;;;;5.60;3.60;;;;;;;;;;6155377;28;20186;-79
2021/09/10 14:33:45;;;;;;;4.05;3.65;;;;;;;;;;6143343;28;20070;-79
2021/09/10 14:36:47;;;;;;;4.03;3.58;;;;;;;;;;6143994;28;20055;-80
2021/09/10 14:39:48;;;;;;;4.65;3.75;;;;;;;;;;6144153;28;20045;-82
2021/09/10 14:42:50;;;;;;;4.45;3.50;;;;;;;;;;6142643;28;20596;-82
2021/09/10 14:45:52;;;;;;;5.53;3.15;;;;;;;;;;6151182;28;20089;-80
2021/09/10 14:48:55;;;;;;;3.92;3.53;;;;;;;;;;6166501;28;20193;-82
2021/09/10 14:51:56;;;;;;;5.22;3.80;;;;;;;;;;6167619;28;20094;-80
2021/09/10 14:54:58;;;;;;;7.03;3.90;;;;;;;;;;6145280;28;20496;-82
2021/09/10 14:58:00;;;;;;;5.50;4.22;;;;;;;;;;6144240;28;20123;-81
2021/09/10 15:01:12;;;;;;;5.85;4.18;;;;;;;;;;6147217;28;20054;-80
2021/09/10 15:04:16;;;;;;;5.60;4.05;;;;;;;;;;6144496;28;20039;-79
2021/09/10 15:07:18;;;;;;;4.63;3.90;;;;;;;;;;6145713;28;20074;-79
2021/09/10 15:10:19;;;;;;;5.90;4.47;;;;;;;;;;6145414;28;20043;-76
2021/09/10 15:13:21;;;;;;;5.25;4.20;;;;;;;;;;6140971;28;20134;-78
2021/09/10 15:16:23;;;;;;;4.18;3.70;;;;;;;;;;6143278;28;20151;-78
2021/09/10 15:19:24;;;;;;;7.10;4.15;;;;;;;;;;6143164;28;20050;-78
2021/09/10 15:22:26;;;;;;;4.72;3.67;;;;;;;;;;6143111;28;20504;-78
2021/09/10 15:25:28;;;;;;;6.65;4.53;;;;;;;;;;6158490;28;20047;-78
2021/09/10 15:28:29;;;;;;;7.10;4.80;;;;;;;;;;6144180;28;20046;-78
2021/09/10 15:31:32;;;;;;;8.60;4.65;;;;;;;;;;6142025;28;20123;-77
2021/09/10 15:34:33;;;;;;;5.28;4.50;;;;;;;;;;6142942;28;20632;-77
2021/09/10 15:37:35;;;;;;;6.65;4.25;;;;;;;;;;6141231;28;20039;-81
2021/09/10 15:40:37;;;;;;;5.95;4.45;;;;;;;;;;6133894;28;20039;-83
2021/09/10 15:43:39;;;;;;;5.63;4.82;;;;;;;;;;6150944;28;20047;-81
2021/09/10 15:46:41;;;;;;;4.88;4.38;;;;;;;;;;6160313;28;20098;-81
2021/09/10 15:49:42;;;;;;;5.03;4.13;;;;;;;;;;6166943;28;20388;-81
2021/09/10 15:52:45;;;;;;;5.18;4.65;;;;;;;;;;6168803;28;20121;-78
2021/09/10 15:55:55;;;;;;;5.38;4.85;;;;;;;;;;6152314;28;20047;-78
2021/09/10 15:58:56;;;;;;;5.30;4.75;;;;;;;;;;6144588;28;20049;-77
2021/09/10 16:01:58;;;;;;;5.13;4.55;;;;;;;;;;6117754;28;20060;-78
2021/09/10 16:05:00;;;;;;;6.82;4.95;;;;;;;;;;6119206;29;20405;-78
2021/09/10 16:08:03;;;;;;;5.65;5.05;;;;;;;;;;6119387;29;20417;-78
2021/09/10 16:11:04;;;;;;;7.72;5.60;;;;;;;;;;6140040;28;20134;-78
2021/09/10 16:14:06;;;;;;;7.85;5.78;;;;;;;;;;6124260;28;20047;-78
2021/09/10 16:17:08;;;;;;;5.70;5.10;;;;;;;;;;6163183;28;20045;-77
2021/09/10 16:20:11;;;;;;;8.07;5.40;;;;;;;;;;6167329;28;20070;-77
2021/09/10 16:23:12;;;;;;;5.90;5.25;;;;;;;;;;6164671;28;20039;-77
2021/09/10 16:26:14;;;;;;;6.22;5.03;;;;;;;;;;6149751;28;20057;-76
2021/09/10 16:29:16;;;;;;;5.75;4.68;;;;;;;;;;6140886;28;20047;-79
2021/09/10 16:32:19;;;;;;;6.63;5.03;;;;;;;;;;6156098;28;20077;-78
2021/09/10 16:35:22;;;;;;;5.93;5.00;;;;;;;;;;6141695;28;20062;-77
2021/09/10 16:38:23;;;;;;;6.88;5.32;;;;;;;;;;6141080;28;20053;-78
2021/09/10 16:41:25;;;;;;;6.60;4.88;;;;;;;;;;6143240;28;20424;-78
2021/09/10 16:44:26;;;;;;;7.53;5.72;;;;;;;;;;6142258;28;20035;-79
2021/09/10 16:47:28;;;;;;;9.18;5.60;;;;;;;;;;6165037;28;20522;-83
2021/09/10 16:50:31;;;;;;;7.40;5.65;;;;;;;;;;6164943;28;20049;-81
2021/09/10 16:53:33;;;;;;;7.85;5.00;;;;;;;;;;6152956;28;20062;-82
2021/09/10 16:56:34;;;;;;;6.05;4.50;;;;;;;;;;6127306;28;20058;-81
2021/09/10 16:59:36;;;;;;;5.57;4.38;;;;;;;;;;6143438;28;20504;-82
2021/09/10 17:02:38;;;;;;;6.43;4.80;;;;;;;;;;6142172;28;20054;-81
2021/09/10 17:05:40;;;;;;;5.78;5.10;;;;;;;;;;6141164;28;20055;-82
2021/09/10 17:08:41;;;;;;;6.57;5.18;;;;;;;;;;6162324;28;20450;-83
2021/09/10 17:11:43;;;;;;;7.10;5.35;;;;;;;;;;6143652;28;20138;-82
2021/09/10 17:14:45;;;;;;;8.13;5.75;;;;;;;;;;6155204;28;20047;-83
2021/09/10 17:17:46;;;;;;;6.90;5.13;;;;;;;;;;6140938;28;20051;-81
2021/09/10 17:20:49;;;;;;;7.40;5.90;;;;;;;;;;6139462;28;20062;-82
2021/09/10 17:23:50;;;;;;;7.38;5.30;;;;;;;;;;6153929;28;20524;-82
2021/09/10 17:26:52;;;;;;;7.88;5.15;;;;;;;;;;6123726;28;20054;-83
2021/09/10 17:29:53;;;;;;;6.47;5.05;;;;;;;;;;6146355;28;20289;-83
2021/09/10 17:32:55;;;;;;;7.30;5.07;;;;;;;;;;6167787;28;20049;-83
2021/09/10 17:35:57;;;;;;;7.63;4.80;;;;;;;;;;6168675;28;20058;-84
2021/09/10 17:38:59;;;;;;;6.80;5.73;;;;;;;;;;6170454;28;20104;-82
2021/09/10 17:42:00;;;;;;;8.35;5.32;;;;;;;;;;6167926;28;20057;-83
2021/09/10 17:45:03;;;;;;;6.72;4.80;;;;;;;;;;6157676;28;20532;-83
2021/09/10 17:48:04;;;;;;;8.50;6.47;;;;;;;;;;6168960;28;20047;-82
2021/09/10 17:51:06;;;;;;;8.18;7.00;;;;;;;;;;6170037;28;20046;-82
2021/09/10 17:54:08;;;;;;;8.55;6.03;;;;;;;;;;6159071;28;20051;-84
2021/09/10 17:57:11;;;;;;;7.63;5.53;;;;;;;;;;6148063;28;20054;-83
2021/09/10 18:00:13;;;;;;;8.93;5.63;;;;;;;;;;6149223;28;20465;-84
2021/09/10 18:03:15;;;;;;;7.83;5.60;;;;;;;;;;6146695;28;20062;-84
2021/09/10 18:06:16;;;;;;;8.98;5.88;;;;;;;;;;6147388;28;20083;-83
2021/09/10 18:09:18;;;;;;;8.35;6.05;;;;;;;;;;6144021;28;20109;-83